createdAt,value
2018-08-07T00:00:25.741Z,1002.52
2018-08-07T00:01:25.740Z,1002.45
2018-08-07T00:02:25.741Z,1002.46
2018-08-07T00:03:25.814Z,1002.49
2018-08-07T00:04:25.746Z,1002.46
2018-08-07T00:05:25.849Z,1002.47
2018-08-07T00:06:25.790Z,1002.48
2018-08-07T00:07:25.735Z,1002.41
2018-08-07T00:08:25.733Z,1002.42
2018-08-07T00:09:25.849Z,1002.45
2018-08-07T00:10:25.835Z,1002.43
2018-08-07T00:11:25.757Z,1002.38
2018-08-07T00:12:25.785Z,1002.43
2018-08-07T00:13:25.736Z,1002.42
2018-08-07T00:14:25.848Z,1002.38
2018-08-07T00:15:25.788Z,1002.35
2018-08-07T00:16:25.915Z,1002.33
2018-08-07T00:17:25.746Z,1002.34
2018-08-07T00:18:25.787Z,1002.31
2018-08-07T00:19:25.823Z,1002.31
2018-08-07T00:20:25.832Z,1002.27
2018-08-07T00:21:25.818Z,1002.27
2018-08-07T00:22:25.779Z,1002.28
2018-08-07T00:23:25.802Z,1002.25
2018-08-07T00:24:25.903Z,1002.30
2018-08-07T00:25:25.826Z,1002.21
2018-08-07T00:26:25.761Z,1002.23
2018-08-07T00:27:25.761Z,1002.22
2018-08-07T00:28:25.832Z,1002.19
2018-08-07T00:29:25.762Z,1002.22
2018-08-07T00:30:25.764Z,1002.20
2018-08-07T00:31:25.829Z,1002.21
2018-08-07T00:32:25.832Z,1002.19
2018-08-07T00:33:25.776Z,1002.17
2018-08-07T00:34:25.836Z,1002.16
2018-08-07T00:35:25.834Z,1002.12
2018-08-07T00:36:25.760Z,1002.19
2018-08-07T00:37:25.759Z,1002.17
2018-08-07T00:38:25.809Z,1002.16
2018-08-07T00:39:25.882Z,1002.16
2018-08-07T00:40:25.836Z,1002.18
2018-08-07T00:41:25.803Z,1002.20
2018-08-07T00:42:25.836Z,1002.17
2018-08-07T00:43:25.816Z,1002.15
2018-08-07T00:44:25.837Z,1002.19
2018-08-07T00:45:25.844Z,1002.12
2018-08-07T00:46:25.778Z,1002.10
2018-08-07T00:47:25.845Z,1002.10
2018-08-07T00:48:25.783Z,1002.06
2018-08-07T00:49:25.722Z,1002.04
2018-08-07T00:50:25.867Z,1002.05
2018-08-07T00:51:25.846Z,1002.04
2018-08-07T00:52:25.780Z,1002.06
2018-08-07T00:53:25.848Z,1002.04
2018-08-07T00:54:25.847Z,1002.05
2018-08-07T00:55:25.842Z,1002.00
2018-08-07T00:56:25.852Z,1002.03
2018-08-07T00:57:25.789Z,1002.03
2018-08-07T00:58:25.842Z,1002.06
2018-08-07T00:59:25.727Z,1002.04
2018-08-07T01:00:25.843Z,1002.09
2018-08-07T01:01:25.816Z,1002.10
2018-08-07T01:02:25.852Z,1002.11
2018-08-07T01:03:25.770Z,1002.11
2018-08-07T01:04:25.878Z,1002.09
2018-08-07T01:05:25.850Z,1002.11
2018-08-07T01:06:25.785Z,1002.07
2018-08-07T01:07:25.857Z,1002.11
2018-08-07T01:08:25.859Z,1002.11
2018-08-07T01:09:25.895Z,1002.10
2018-08-07T01:10:25.793Z,1002.08
2018-08-07T01:11:25.796Z,1002.07
2018-08-07T01:12:25.864Z,1002.07
2018-08-07T01:13:25.822Z,1002.03
2018-08-07T01:14:25.928Z,1002.05
2018-08-07T01:15:25.799Z,1002.04
2018-08-07T01:16:25.871Z,1002.01
2018-08-07T01:17:25.797Z,1002.01
2018-08-07T01:18:25.865Z,1002.00
2018-08-07T01:19:25.796Z,1002.02
2018-08-07T01:20:25.795Z,1001.98
2018-08-07T01:21:25.799Z,1001.98
2018-08-07T01:22:25.891Z,1001.95
2018-08-07T01:23:25.872Z,1001.95
2018-08-07T01:24:25.818Z,1001.95
2018-08-07T01:25:25.814Z,1001.95
2018-08-07T01:26:25.832Z,1001.97
2018-08-07T01:27:25.877Z,1002.00
2018-08-07T01:28:25.889Z,1001.98
2018-08-07T01:29:25.809Z,1001.98
2018-08-07T01:30:25.903Z,1002.00
2018-08-07T01:31:25.898Z,1001.96
2018-08-07T01:32:25.871Z,1002.02
2018-08-07T01:33:25.905Z,1001.95
2018-08-07T01:34:25.796Z,1001.95
2018-08-07T01:35:25.837Z,1001.95
2018-08-07T01:36:25.881Z,1001.92
2018-08-07T01:37:25.844Z,1001.91
2018-08-07T01:38:25.809Z,1001.91
2018-08-07T01:39:25.881Z,1001.89
2018-08-07T01:40:25.811Z,1001.90
2018-08-07T01:41:25.809Z,1001.89
2018-08-07T01:42:25.881Z,1001.89
2018-08-07T01:43:25.887Z,1001.83
2018-08-07T01:44:25.822Z,1001.81
2018-08-07T01:45:25.813Z,1001.81
2018-08-07T01:46:25.878Z,1001.81
2018-08-07T01:47:25.789Z,1001.78
2018-08-07T01:48:25.803Z,1001.82
2018-08-07T01:49:25.755Z,1001.81
2018-08-07T01:50:25.777Z,1001.78
2018-08-07T01:51:25.883Z,1001.80
2018-08-07T01:52:25.812Z,1001.78
2018-08-07T01:53:25.797Z,1001.79
2018-08-07T01:54:25.881Z,1001.76
2018-08-07T01:55:25.766Z,1001.79
2018-08-07T01:56:25.795Z,1001.78
2018-08-07T01:57:25.897Z,1001.74
2018-08-07T01:58:25.898Z,1001.76
2018-08-07T01:59:25.924Z,1001.74
2018-08-07T02:00:25.937Z,1001.70
2018-08-07T02:01:25.890Z,1001.70
2018-08-07T02:02:25.871Z,1001.68
2018-08-07T02:03:25.797Z,1001.70
2018-08-07T02:04:25.918Z,1001.71
2018-08-07T02:05:25.834Z,1001.70
2018-08-07T02:06:25.820Z,1001.73
2018-08-07T02:07:25.900Z,1001.71
2018-08-07T02:08:25.840Z,1001.71
2018-08-07T02:09:25.880Z,1001.72
2018-08-07T02:10:25.901Z,1001.67
2018-08-07T02:11:25.884Z,1001.65
2018-08-07T02:12:25.927Z,1001.64
2018-08-07T02:13:25.854Z,1001.63
2018-08-07T02:14:25.863Z,1001.61
2018-08-07T02:15:25.905Z,1001.61
2018-08-07T02:16:25.910Z,1001.58
2018-08-07T02:17:25.794Z,1001.58
2018-08-07T02:18:25.910Z,1001.58
2018-08-07T02:19:25.906Z,1001.59
2018-08-07T02:20:25.907Z,1001.58
2018-08-07T02:21:25.846Z,1001.60
2018-08-07T02:22:25.908Z,1001.61
2018-08-07T02:23:25.844Z,1001.66
2018-08-07T02:24:25.910Z,1001.64
2018-08-07T02:25:25.871Z,1001.64
2018-08-07T02:26:25.844Z,1001.65
2018-08-07T02:27:25.905Z,1001.61
2018-08-07T02:28:25.868Z,1001.65
2018-08-07T02:29:25.931Z,1001.65
2018-08-07T02:30:25.902Z,1001.61
2018-08-07T02:31:25.789Z,1001.63
2018-08-07T02:32:25.821Z,1001.62
2018-08-07T02:33:25.918Z,1001.61
2018-08-07T02:34:25.909Z,1001.62
2018-08-07T02:35:25.911Z,1001.58
2018-08-07T02:36:25.889Z,1001.57
2018-08-07T02:37:25.855Z,1001.60
2018-08-07T02:38:25.880Z,1001.57
2018-08-07T02:39:25.850Z,1001.56
2018-08-07T02:40:25.922Z,1001.56
2018-08-07T02:41:25.855Z,1001.58
2018-08-07T02:42:25.860Z,1001.58
2018-08-07T02:43:25.932Z,1001.57
2018-08-07T02:44:25.851Z,1001.55
2018-08-07T02:45:25.872Z,1001.58
2018-08-07T02:46:25.950Z,1001.59
2018-08-07T02:47:25.942Z,1001.57
2018-08-07T02:48:25.905Z,1001.62
2018-08-07T02:49:25.964Z,1001.58
2018-08-07T02:50:25.944Z,1001.56
2018-08-07T02:51:25.900Z,1001.55
2018-08-07T02:52:25.932Z,1001.55
2018-08-07T02:53:25.960Z,1001.57
2018-08-07T02:54:25.889Z,1001.51
2018-08-07T02:55:25.933Z,1001.56
2018-08-07T02:56:25.757Z,1001.54
2018-08-07T02:57:25.822Z,1001.59
2018-08-07T02:58:25.798Z,1001.54
2018-08-07T02:59:25.819Z,1001.55
2018-08-07T03:00:25.801Z,1001.55
2018-08-07T03:01:25.800Z,1001.54
2018-08-07T03:02:25.809Z,1001.51
2018-08-07T03:03:25.813Z,1001.49
2018-08-07T03:04:25.813Z,1001.47
2018-08-07T03:05:25.870Z,1001.48
2018-08-07T03:06:25.916Z,1001.46
2018-08-07T03:07:25.840Z,1001.53
2018-08-07T03:08:25.948Z,1001.55
2018-08-07T03:09:25.979Z,1001.56
2018-08-07T03:10:25.908Z,1001.55
2018-08-07T03:11:25.882Z,1001.59
2018-08-07T03:12:25.917Z,1001.61
2018-08-07T03:13:25.862Z,1001.61
2018-08-07T03:14:25.961Z,1001.58
2018-08-07T03:15:25.909Z,1001.59
2018-08-07T03:16:25.845Z,1001.60
2018-08-07T03:17:25.819Z,1001.56
2018-08-07T03:18:25.823Z,1001.58
2018-08-07T03:19:25.935Z,1001.57
2018-08-07T03:20:25.936Z,1001.60
2018-08-07T03:21:25.890Z,1001.56
2018-08-07T03:22:25.851Z,1001.56
2018-08-07T03:23:25.906Z,1001.56
2018-08-07T03:24:25.938Z,1001.55
2018-08-07T03:25:25.841Z,1001.57
2018-08-07T03:26:25.917Z,1001.56
2018-08-07T03:27:25.891Z,1001.52
2018-08-07T03:28:25.878Z,1001.55
2018-08-07T03:29:25.935Z,1001.54
2018-08-07T03:30:25.994Z,1001.55
2018-08-07T03:31:25.978Z,1001.55
2018-08-07T03:32:25.927Z,1001.53
2018-08-07T03:33:25.955Z,1001.48
2018-08-07T03:34:25.901Z,1001.49
2018-08-07T03:35:25.929Z,1001.51
2018-08-07T03:36:25.857Z,1001.54
2018-08-07T03:37:25.829Z,1001.50
2018-08-07T03:38:25.952Z,1001.51
2018-08-07T03:39:25.886Z,1001.55
2018-08-07T03:40:25.834Z,1001.55
2018-08-07T03:41:25.838Z,1001.54
2018-08-07T03:42:25.916Z,1001.54
2018-08-07T03:43:25.904Z,1001.51
2018-08-07T03:44:25.941Z,1001.47
2018-08-07T03:45:25.898Z,1001.51
2018-08-07T03:46:25.873Z,1001.43
2018-08-07T03:47:25.966Z,1001.49
2018-08-07T03:48:25.924Z,1001.46
2018-08-07T03:49:25.910Z,1001.50
2018-08-07T03:50:25.986Z,1001.52
2018-08-07T03:51:25.872Z,1001.54
2018-08-07T03:52:25.933Z,1001.54
2018-08-07T03:53:26.007Z,1001.55
2018-08-07T03:54:25.887Z,1001.56
2018-08-07T03:55:26.006Z,1001.53
2018-08-07T03:56:25.893Z,1001.59
2018-08-07T03:57:25.880Z,1001.57
2018-08-07T03:58:26.002Z,1001.57
2018-08-07T03:59:26.014Z,1001.58
2018-08-07T04:00:25.882Z,1001.60
2018-08-07T04:01:25.977Z,1001.58
2018-08-07T04:02:25.882Z,1001.59
2018-08-07T04:03:25.915Z,1001.60
2018-08-07T04:04:25.936Z,1001.65
2018-08-07T04:05:25.995Z,1001.63
2018-08-07T04:06:25.913Z,1001.66
2018-08-07T04:07:25.913Z,1001.65
2018-08-07T04:08:25.981Z,1001.63
2018-08-07T04:09:25.985Z,1001.68
2018-08-07T04:10:25.989Z,1001.64
2018-08-07T04:11:26.107Z,1001.64
2018-08-07T04:12:25.985Z,1001.59
2018-08-07T04:13:25.915Z,1001.60
2018-08-07T04:14:25.986Z,1001.57
2018-08-07T04:15:25.919Z,1001.53
2018-08-07T04:16:25.966Z,1001.53
2018-08-07T04:17:25.920Z,1001.55
2018-08-07T04:18:25.963Z,1001.60
2018-08-07T04:19:25.898Z,1001.57
2018-08-07T04:20:25.971Z,1001.59
2018-08-07T04:21:25.917Z,1001.57
2018-08-07T04:22:25.912Z,1001.61
2018-08-07T04:23:25.965Z,1001.58
2018-08-07T04:24:25.968Z,1001.57
2018-08-07T04:25:25.890Z,1001.58
2018-08-07T04:26:26.015Z,1001.59
2018-08-07T04:27:26.010Z,1001.60
2018-08-07T04:28:25.901Z,1001.63
2018-08-07T04:29:25.924Z,1001.62
2018-08-07T04:30:25.959Z,1001.62
2018-08-07T04:31:26.006Z,1001.68
2018-08-07T04:32:25.996Z,1001.67
2018-08-07T04:33:25.919Z,1001.62
2018-08-07T04:34:26.091Z,1001.62
2018-08-07T04:35:26.026Z,1001.62
2018-08-07T04:36:25.936Z,1001.61
2018-08-07T04:37:26.028Z,1001.63
2018-08-07T04:38:25.955Z,1001.64
2018-08-07T04:39:25.956Z,1001.66
2018-08-07T04:40:26.004Z,1001.66
2018-08-07T04:41:25.910Z,1001.66
2018-08-07T04:42:25.963Z,1001.63
2018-08-07T04:43:25.983Z,1001.66
2018-08-07T04:44:25.987Z,1001.64
2018-08-07T04:45:25.960Z,1001.70
2018-08-07T04:46:25.969Z,1001.66
2018-08-07T04:47:25.909Z,1001.68
2018-08-07T04:48:25.911Z,1001.66
2018-08-07T04:49:26.024Z,1001.62
2018-08-07T04:50:25.928Z,1001.65
2018-08-07T04:51:25.972Z,1001.64
2018-08-07T04:52:25.978Z,1001.63
2018-08-07T04:53:25.972Z,1001.59
2018-08-07T04:54:25.955Z,1001.64
2018-08-07T04:55:25.980Z,1001.58
2018-08-07T04:56:26.014Z,1001.60
2018-08-07T04:57:26.012Z,1001.61
2018-08-07T04:58:25.980Z,1001.61
2018-08-07T04:59:26.016Z,1001.59
2018-08-07T05:00:26.017Z,1001.60
2018-08-07T05:01:25.950Z,1001.57
2018-08-07T05:02:25.951Z,1001.54
2018-08-07T05:03:25.949Z,1001.53
2018-08-07T05:04:26.015Z,1001.55
2018-08-07T05:05:25.948Z,1001.52
2018-08-07T05:06:26.057Z,1001.57
2018-08-07T05:07:26.017Z,1001.57
2018-08-07T05:08:26.059Z,1001.55
2018-08-07T05:09:25.923Z,1001.55
2018-08-07T05:10:26.068Z,1001.49
2018-08-07T05:11:26.004Z,1001.54
2018-08-07T05:12:25.982Z,1001.50
2018-08-07T05:13:26.055Z,1001.51
2018-08-07T05:14:25.987Z,1001.53
2018-08-07T05:15:25.927Z,1001.52
2018-08-07T05:16:26.005Z,1001.51
2018-08-07T05:17:26.003Z,1001.57
2018-08-07T05:18:26.007Z,1001.56
2018-08-07T05:19:26.071Z,1001.57
2018-08-07T05:20:26.054Z,1001.60
2018-08-07T05:21:26.055Z,1001.56
2018-08-07T05:22:26.061Z,1001.57
2018-08-07T05:23:26.056Z,1001.58
2018-08-07T05:24:26.068Z,1001.59
2018-08-07T05:25:26.036Z,1001.56
2018-08-07T05:26:25.936Z,1001.57
2018-08-07T05:27:26.006Z,1001.57
2018-08-07T05:28:26.059Z,1001.62
2018-08-07T05:29:25.995Z,1001.61
2018-08-07T05:30:26.022Z,1001.62
2018-08-07T05:31:26.037Z,1001.64
2018-08-07T05:32:25.994Z,1001.66
2018-08-07T05:33:26.073Z,1001.65
2018-08-07T05:34:26.022Z,1001.67
2018-08-07T05:35:26.067Z,1001.66
2018-08-07T05:36:26.008Z,1001.67
2018-08-07T05:37:26.078Z,1001.70
2018-08-07T05:38:26.011Z,1001.67
2018-08-07T05:39:26.019Z,1001.69
2018-08-07T05:40:26.073Z,1001.72
2018-08-07T05:41:26.085Z,1001.67
2018-08-07T05:42:26.103Z,1001.70
2018-08-07T05:43:25.946Z,1001.76
2018-08-07T05:44:26.051Z,1001.72
2018-08-07T05:45:26.047Z,1001.71
2018-08-07T05:46:26.056Z,1001.71
2018-08-07T05:47:25.956Z,1001.68
2018-08-07T05:48:26.086Z,1001.71
2018-08-07T05:49:26.053Z,1001.72
2018-08-07T05:50:26.226Z,1001.73
2018-08-07T05:51:26.063Z,1001.75
2018-08-07T05:52:26.025Z,1001.73
2018-08-07T05:53:26.093Z,1001.74
2018-08-07T05:54:26.051Z,1001.71
2018-08-07T05:55:26.083Z,1001.76
2018-08-07T05:56:26.026Z,1001.74
2018-08-07T05:57:26.082Z,1001.74
2018-08-07T05:58:26.077Z,1001.71
2018-08-07T05:59:26.090Z,1001.75
2018-08-07T06:00:26.060Z,1001.73
2018-08-07T06:01:25.982Z,1001.76
2018-08-07T06:02:26.041Z,1001.73
2018-08-07T06:03:26.060Z,1001.72
2018-08-07T06:04:26.076Z,1001.76
2018-08-07T06:05:25.983Z,1001.75
2018-08-07T06:06:25.968Z,1001.75
2018-08-07T06:07:26.078Z,1001.75
2018-08-07T06:08:26.094Z,1001.73
2018-08-07T06:09:26.098Z,1001.76
2018-08-07T06:10:26.065Z,1001.76
2018-08-07T06:11:25.966Z,1001.76
2018-08-07T06:12:26.068Z,1001.77
2018-08-07T06:13:26.008Z,1001.72
2018-08-07T06:14:26.102Z,1001.73
2018-08-07T06:15:26.109Z,1001.72
2018-08-07T06:16:26.071Z,1001.73
2018-08-07T06:17:26.045Z,1001.68
2018-08-07T06:18:25.994Z,1001.72
2018-08-07T06:19:26.047Z,1001.72
2018-08-07T06:22:26.149Z,1001.71
2018-08-07T06:23:26.082Z,1001.73
2018-08-07T06:24:26.045Z,1001.72
2018-08-07T06:25:26.048Z,1001.74
2018-08-07T06:26:26.045Z,1001.73
2018-08-07T06:27:25.980Z,1001.71
2018-08-07T06:28:26.051Z,1001.75
2018-08-07T06:29:26.004Z,1001.68
2018-08-07T06:30:26.016Z,1001.68
2018-08-07T06:31:26.050Z,1001.69
2018-08-07T06:32:26.049Z,1001.68
2018-08-07T06:33:26.056Z,1001.68
2018-08-07T06:34:26.049Z,1001.66
2018-08-07T06:35:26.112Z,1001.66
2018-08-07T06:36:26.111Z,1001.69
2018-08-07T06:37:26.035Z,1001.71
2018-08-07T06:38:26.159Z,1001.68
2018-08-07T06:39:26.084Z,1001.70
2018-08-07T06:40:26.064Z,1001.66
2018-08-07T06:41:26.051Z,1001.68
2018-08-07T06:42:26.127Z,1001.69
2018-08-07T06:43:26.068Z,1001.65
2018-08-07T06:44:25.987Z,1001.68
2018-08-07T06:45:26.069Z,1001.67
2018-08-07T06:46:26.053Z,1001.68
2018-08-07T06:47:26.049Z,1001.69
2018-08-07T06:48:26.109Z,1001.66
2018-08-07T06:49:26.049Z,1001.69
2018-08-07T06:50:26.062Z,1001.68
2018-08-07T06:51:26.124Z,1001.69
2018-08-07T06:52:26.002Z,1001.66
2018-08-07T06:53:26.099Z,1001.68
2018-08-07T06:54:26.084Z,1001.69
2018-08-07T06:55:26.074Z,1001.68
2018-08-07T06:56:26.056Z,1001.67
2018-08-07T06:57:26.035Z,1001.70
2018-08-07T06:58:26.033Z,1001.66
2018-08-07T06:59:26.098Z,1001.69
2018-08-07T07:00:26.032Z,1001.64
2018-08-07T07:01:26.098Z,1001.67
2018-08-07T07:02:26.097Z,1001.61
2018-08-07T07:03:26.034Z,1001.66
2018-08-07T07:04:26.115Z,1001.69
2018-08-07T07:05:26.036Z,1001.65
2018-08-07T07:06:26.058Z,1001.69
2018-08-07T07:07:26.128Z,1001.68
2018-08-07T07:08:26.176Z,1001.64
2018-08-07T07:09:26.154Z,1001.60
2018-08-07T07:10:26.139Z,1001.56
2018-08-07T07:11:26.104Z,1001.56
2018-08-07T07:12:26.130Z,1001.56
2018-08-07T07:13:26.082Z,1001.57
2018-08-07T07:14:26.004Z,1001.54
2018-08-07T07:15:26.078Z,1001.53
2018-08-07T07:16:26.069Z,1001.50
2018-08-07T07:17:26.111Z,1001.53
2018-08-07T07:18:26.035Z,1001.50
2018-08-07T07:19:26.036Z,1001.42
2018-08-07T07:20:26.080Z,1001.45
2018-08-07T07:21:26.130Z,1001.43
2018-08-07T07:22:26.142Z,1001.41
2018-08-07T07:23:26.075Z,1001.40
2018-08-07T07:24:26.083Z,1001.46
2018-08-07T07:25:26.153Z,1001.45
2018-08-07T07:26:26.073Z,1001.43
2018-08-07T07:27:26.048Z,1001.40
2018-08-07T07:28:26.006Z,1001.44
2018-08-07T07:29:25.977Z,1001.41
2018-08-07T07:30:26.051Z,1001.41
2018-08-07T07:31:26.081Z,1001.37
2018-08-07T07:32:26.015Z,1001.35
2018-08-07T07:33:25.997Z,1001.37
2018-08-07T07:34:26.013Z,1001.36
2018-08-07T07:35:25.998Z,1001.39
2018-08-07T07:36:26.057Z,1001.35
2018-08-07T07:37:26.101Z,1001.36
2018-08-07T07:38:26.158Z,1001.29
2018-08-07T07:39:26.090Z,1001.29
2018-08-07T07:40:26.128Z,1001.31
2018-08-07T07:41:26.063Z,1001.33
2018-08-07T07:42:26.107Z,1001.28
2018-08-07T07:43:26.131Z,1001.26
2018-08-07T07:44:26.050Z,1001.29
2018-08-07T07:45:26.128Z,1001.34
2018-08-07T07:46:26.052Z,1001.29
2018-08-07T07:47:26.076Z,1001.29
2018-08-07T07:48:26.102Z,1001.27
2018-08-07T07:49:26.039Z,1001.32
2018-08-07T07:50:26.160Z,1001.30
2018-08-07T07:51:26.160Z,1001.32
2018-08-07T07:52:26.037Z,1001.31
2018-08-07T07:53:26.180Z,1001.36
2018-08-07T07:54:26.039Z,1001.35
2018-08-07T07:55:26.077Z,1001.32
2018-08-07T07:56:26.077Z,1001.31
2018-08-07T07:57:26.113Z,1001.27
2018-08-07T07:58:26.120Z,1001.30
2018-08-07T07:59:26.053Z,1001.25
2018-08-07T08:00:26.169Z,1001.24
2018-08-07T08:01:26.105Z,1001.26
2018-08-07T08:02:26.115Z,1001.22
2018-08-07T08:03:26.161Z,1001.26
2018-08-07T08:04:26.046Z,1001.24
2018-08-07T08:05:26.131Z,1001.27
2018-08-07T08:06:26.183Z,1001.25
2018-08-07T08:07:26.084Z,1001.29
2018-08-07T08:08:26.148Z,1001.24
2018-08-07T08:09:26.113Z,1001.27
2018-08-07T08:10:26.162Z,1001.27
2018-08-07T08:11:26.086Z,1001.24
2018-08-07T08:12:26.082Z,1001.29
2018-08-07T08:13:26.212Z,1001.22
2018-08-07T08:14:26.085Z,1001.23
2018-08-07T08:15:26.091Z,1001.20
2018-08-07T08:16:26.151Z,1001.20
2018-08-07T08:17:26.122Z,1001.22
2018-08-07T08:18:26.152Z,1001.23
2018-08-07T08:19:26.140Z,1001.22
2018-08-07T08:20:26.120Z,1001.24
2018-08-07T08:21:26.184Z,1001.19
2018-08-07T08:22:26.158Z,1001.15
2018-08-07T08:23:26.121Z,1001.22
2018-08-07T08:24:26.179Z,1001.19
2018-08-07T08:25:26.153Z,1001.19
2018-08-07T08:26:26.120Z,1001.17
2018-08-07T08:27:26.241Z,1001.16
2018-08-07T08:28:26.082Z,1001.13
2018-08-07T08:29:26.345Z,1001.16
2018-08-07T08:30:26.189Z,1001.17
2018-08-07T08:31:26.085Z,1001.18
2018-08-07T08:32:26.168Z,1001.13
2018-08-07T08:33:26.186Z,1001.14
2018-08-07T08:34:26.166Z,1001.11
2018-08-07T08:35:26.237Z,1001.10
2018-08-07T08:36:26.193Z,1001.14
2018-08-07T08:37:26.145Z,1001.06
2018-08-07T08:38:26.149Z,1001.09
2018-08-07T08:39:26.135Z,1001.13
2018-08-07T08:40:26.198Z,1001.11
2018-08-07T08:41:26.106Z,1001.09
2018-08-07T08:42:26.210Z,1001.08
2018-08-07T08:43:26.218Z,1001.04
2018-08-07T08:44:26.159Z,1001.00
2018-08-07T08:45:26.137Z,1001.00
2018-08-07T08:46:26.151Z,1000.99
2018-08-07T08:47:26.127Z,1001.01
2018-08-07T08:48:26.109Z,1000.97
2018-08-07T08:49:26.264Z,1000.95
2018-08-07T08:50:26.112Z,1000.91
2018-08-07T08:51:26.209Z,1000.88
2018-08-07T08:52:26.181Z,1000.88
2018-08-07T08:53:26.116Z,1000.85
2018-08-07T08:54:26.179Z,1000.86
2018-08-07T08:55:26.181Z,1000.80
2018-08-07T08:56:26.247Z,1000.88
2018-08-07T08:57:26.187Z,1000.85
2018-08-07T08:58:26.182Z,1000.85
2018-08-07T08:59:26.181Z,1000.81
2018-08-07T09:00:26.144Z,1000.80
2018-08-07T09:01:26.117Z,1000.77
2018-08-07T09:02:26.188Z,1000.79
2018-08-07T09:03:26.122Z,1000.79
2018-08-07T09:04:26.133Z,1000.78
2018-08-07T09:05:26.186Z,1000.73
2018-08-07T09:06:26.194Z,1000.73
2018-08-07T09:07:26.186Z,1000.72
2018-08-07T09:08:26.194Z,1000.68
2018-08-07T09:09:26.058Z,1000.73
2018-08-07T09:10:26.321Z,1000.69
2018-08-07T09:11:26.109Z,1000.73
2018-08-07T09:12:26.126Z,1000.68
2018-08-07T09:13:26.129Z,1000.68
2018-08-07T09:14:26.119Z,1000.64
2018-08-07T09:15:26.098Z,1000.63
2018-08-07T09:16:26.121Z,1000.61
2018-08-07T09:17:26.166Z,1000.58
2018-08-07T09:18:26.200Z,1000.56
2018-08-07T09:19:26.227Z,1000.56
2018-08-07T09:20:26.211Z,1000.54
2018-08-07T09:21:26.198Z,1000.52
2018-08-07T09:22:26.172Z,1000.53
2018-08-07T09:23:26.102Z,1000.55
2018-08-07T09:24:26.219Z,1000.53
2018-08-07T09:25:26.348Z,1000.51
2018-08-07T09:26:26.171Z,1000.50
2018-08-07T09:27:26.203Z,1000.49
2018-08-07T09:28:26.164Z,1000.51
2018-08-07T09:29:26.185Z,1000.49
2018-08-07T09:30:26.207Z,1000.47
2018-08-07T09:31:26.108Z,1000.43
2018-08-07T09:32:26.207Z,1000.44
2018-08-07T09:33:26.204Z,1000.38
2018-08-07T09:34:26.175Z,1000.42
2018-08-07T09:35:26.234Z,1000.38
2018-08-07T09:36:26.176Z,1000.37
2018-08-07T09:37:26.165Z,1000.35
2018-08-07T09:38:26.170Z,1000.35
2018-08-07T09:39:26.230Z,1000.34
2018-08-07T09:40:26.189Z,1000.31
2018-08-07T09:41:26.234Z,1000.30
2018-08-07T09:42:26.175Z,1000.28
2018-08-07T09:43:26.212Z,1000.27
2018-08-07T09:44:26.188Z,1000.23
2018-08-07T09:45:26.198Z,1000.23
2018-08-07T09:46:26.235Z,1000.20
2018-08-07T09:47:26.116Z,1000.21
2018-08-07T09:48:26.121Z,1000.19
2018-08-07T09:49:26.159Z,1000.15
2018-08-07T09:50:26.155Z,1000.18
2018-08-07T09:51:26.213Z,1000.17
2018-08-07T09:52:26.245Z,1000.15
2018-08-07T09:53:26.212Z,1000.18
2018-08-07T09:54:26.107Z,1000.17
2018-08-07T09:55:26.129Z,1000.13
2018-08-07T09:56:26.206Z,1000.14
2018-08-07T09:57:26.210Z,1000.14
2018-08-07T09:58:26.255Z,1000.13
2018-08-07T09:59:26.156Z,1000.14
2018-08-07T10:00:26.210Z,1000.08
2018-08-07T10:01:26.177Z,1000.06
2018-08-07T10:02:26.115Z,1000.09
2018-08-07T10:03:26.229Z,1000.00
2018-08-07T10:04:26.177Z,1000.02
2018-08-07T10:05:26.297Z,1000.05
2018-08-07T10:06:26.162Z,1000.10
2018-08-07T10:07:26.232Z,1000.11
2018-08-07T10:08:26.151Z,1000.06
2018-08-07T10:09:26.209Z,1000.06
2018-08-07T10:10:26.228Z,999.97
2018-08-07T10:11:26.268Z,1000.00
2018-08-07T10:12:26.344Z,999.94
2018-08-07T10:13:26.135Z,999.96
2018-08-07T10:14:26.217Z,999.98
2018-08-07T10:15:26.252Z,999.94
2018-08-07T10:16:26.216Z,999.87
2018-08-07T10:17:26.235Z,999.87
2018-08-07T10:18:26.173Z,999.88
2018-08-07T10:19:26.196Z,999.78
2018-08-07T10:20:26.175Z,999.78
2018-08-07T10:21:26.239Z,999.76
2018-08-07T10:22:26.174Z,999.72
2018-08-07T10:23:26.362Z,999.73
2018-08-07T10:24:26.175Z,999.69
2018-08-07T10:25:26.248Z,999.71
2018-08-07T10:26:26.204Z,999.73
2018-08-07T10:27:26.247Z,999.72
2018-08-07T10:28:26.178Z,999.72
2018-08-07T10:29:26.249Z,999.71
2018-08-07T10:30:26.230Z,999.69
2018-08-07T10:31:26.185Z,999.70
2018-08-07T10:32:26.184Z,999.69
2018-08-07T10:33:26.182Z,999.69
2018-08-07T10:34:26.251Z,999.71
2018-08-07T10:35:26.184Z,999.70
2018-08-07T10:36:26.248Z,999.69
2018-08-07T10:37:26.186Z,999.63
2018-08-07T10:38:26.255Z,999.62
2018-08-07T10:39:26.250Z,999.59
2018-08-07T10:40:26.280Z,999.57
2018-08-07T10:41:26.250Z,999.56
2018-08-07T10:42:26.194Z,999.55
2018-08-07T10:43:26.223Z,999.47
2018-08-07T10:44:26.254Z,999.48
2018-08-07T10:45:26.196Z,999.51
2018-08-07T10:46:26.318Z,999.46
2018-08-07T10:47:26.224Z,999.50
2018-08-07T10:48:26.163Z,999.44
2018-08-07T10:49:26.217Z,999.47
2018-08-07T10:50:26.163Z,999.44
2018-08-07T10:51:26.230Z,999.47
2018-08-07T10:52:26.239Z,999.42
2018-08-07T10:53:26.241Z,999.41
2018-08-07T10:54:26.172Z,999.39
2018-08-07T10:55:26.240Z,999.39
2018-08-07T10:56:26.306Z,999.33
2018-08-07T10:57:26.201Z,999.36
2018-08-07T10:58:26.251Z,999.29
2018-08-07T10:59:26.207Z,999.28
2018-08-07T11:00:26.157Z,999.26
2018-08-07T11:01:26.199Z,999.28
2018-08-07T11:02:26.268Z,999.24
2018-08-07T11:03:26.269Z,999.29
2018-08-07T11:04:26.203Z,999.30
2018-08-07T11:05:26.243Z,999.22
2018-08-07T11:06:26.206Z,999.28
2018-08-07T11:07:26.250Z,999.26
2018-08-07T11:08:26.264Z,999.26
2018-08-07T11:09:26.246Z,999.26
2018-08-07T11:10:26.209Z,999.26
2018-08-07T11:11:26.144Z,999.25
2018-08-07T11:12:26.149Z,999.26
2018-08-07T11:13:26.235Z,999.20
2018-08-07T11:14:26.210Z,999.20
2018-08-07T11:15:26.229Z,999.25
2018-08-07T11:16:26.181Z,999.24
2018-08-07T11:17:26.316Z,999.24
2018-08-07T11:18:26.237Z,999.24
2018-08-07T11:19:26.279Z,999.23
2018-08-07T11:20:26.251Z,999.21
2018-08-07T11:21:26.219Z,999.20
2018-08-07T11:22:26.248Z,999.20
2018-08-07T11:23:26.320Z,999.17
2018-08-07T11:24:26.345Z,999.19
2018-08-07T11:25:26.282Z,999.19
2018-08-07T11:26:26.194Z,999.11
2018-08-07T11:27:26.285Z,999.11
2018-08-07T11:28:26.249Z,999.11
2018-08-07T11:29:26.308Z,999.10
2018-08-07T11:30:26.306Z,999.07
2018-08-07T11:31:26.260Z,999.06
2018-08-07T11:32:26.313Z,999.08
2018-08-07T11:33:26.309Z,999.06
2018-08-07T11:34:26.292Z,999.01
2018-08-07T11:35:26.368Z,998.99
2018-08-07T11:36:26.276Z,999.01
2018-08-07T11:37:26.201Z,999.02
2018-08-07T11:38:26.201Z,999.02
2018-08-07T11:39:26.309Z,999.01
2018-08-07T11:40:26.331Z,999.04
2018-08-07T11:41:26.411Z,998.96
2018-08-07T11:42:26.194Z,998.94
2018-08-07T11:43:26.275Z,998.92
2018-08-07T11:44:26.294Z,998.87
2018-08-07T11:45:26.322Z,998.87
2018-08-07T11:46:26.278Z,998.87
2018-08-07T11:47:26.202Z,998.78
2018-08-07T11:48:26.393Z,998.76
2018-08-07T11:49:26.284Z,998.80
2018-08-07T11:50:26.265Z,998.85
2018-08-07T11:51:26.301Z,998.86
2018-08-07T11:52:26.341Z,998.78
2018-08-07T11:53:26.343Z,998.81
2018-08-07T11:54:26.308Z,998.75
2018-08-07T11:55:26.301Z,998.73
2018-08-07T11:56:26.352Z,998.72
2018-08-07T11:57:26.284Z,998.63
2018-08-07T11:58:26.345Z,998.67
2018-08-07T11:59:26.270Z,998.73
2018-08-07T12:00:26.291Z,998.71
2018-08-07T12:01:26.329Z,998.72
2018-08-07T12:02:26.277Z,998.74
2018-08-07T12:03:26.285Z,998.69
2018-08-07T12:04:26.313Z,998.68
2018-08-07T12:05:26.355Z,998.68
2018-08-07T12:06:26.267Z,998.71
2018-08-07T12:07:26.320Z,998.70
2018-08-07T12:08:26.126Z,998.71
2018-08-07T12:09:26.215Z,998.65
2018-08-07T12:10:26.280Z,998.71
2018-08-07T12:11:26.352Z,998.68